sensor_id;sensor_type;location;lat;lon;timestamp;P1;durP1;ratioP1;P2;durP2;ratioP2
33644;SDS011;19986;48.190;16.366;2023-04-08T00:01:14;78.45;;;72.10;;
33644;SDS011;19986;48.190;16.366;2023-04-08T00:03:40;75.55;;;69.50;;
33644;SDS011;19986;48.190;16.366;2023-04-08T00:06:06;69.40;;;64.30;;
33644;SDS011;19986;48.190;16.366;2023-04-08T00:08:32;65.65;;;60.85;;
33644;SDS011;19986;48.190;16.366;2023-04-08T00:10:58;67.05;;;62.05;;
33644;SDS011;19986;48.190;16.366;2023-04-08T00:13:24;66.20;;;61.50;;
33644;SDS011;19986;48.190;16.366;2023-04-08T00:15:50;62.72;;;58.53;;
33644;SDS011;19986;48.190;16.366;2023-04-08T00:18:16;64.25;;;59.92;;
33644;SDS011;19986;48.190;16.366;2023-04-08T00:20:42;61.67;;;57.65;;
33644;SDS011;19986;48.190;16.366;2023-04-08T00:23:08;60.42;;;56.40;;
33644;SDS011;19986;48.190;16.366;2023-04-08T00:25:34;58.33;;;54.35;;
33644;SDS011;19986;48.190;16.366;2023-04-08T00:28:00;59.35;;;55.45;;
33644;SDS011;19986;48.190;16.366;2023-04-08T00:30:26;57.65;;;54.05;;
33644;SDS011;19986;48.190;16.366;2023-04-08T00:32:52;55.13;;;51.63;;
33644;SDS011;19986;48.190;16.366;2023-04-08T00:35:18;55.72;;;52.22;;
33644;SDS011;19986;48.190;16.366;2023-04-08T00:37:44;57.03;;;53.25;;
33644;SDS011;19986;48.190;16.366;2023-04-08T00:40:10;56.03;;;52.42;;
33644;SDS011;19986;48.190;16.366;2023-04-08T00:42:37;52.90;;;49.65;;
33644;SDS011;19986;48.190;16.366;2023-04-08T00:45:03;56.55;;;53.05;;
33644;SDS011;19986;48.190;16.366;2023-04-08T00:47:30;55.03;;;51.83;;
33644;SDS011;19986;48.190;16.366;2023-04-08T00:49:57;52.95;;;49.95;;
33644;SDS011;19986;48.190;16.366;2023-04-08T00:52:23;51.25;;;48.25;;
33644;SDS011;19986;48.190;16.366;2023-04-08T00:54:49;51.72;;;48.83;;
33644;SDS011;19986;48.190;16.366;2023-04-08T00:57:15;54.97;;;51.78;;
33644;SDS011;19986;48.190;16.366;2023-04-08T00:59:41;54.22;;;51.13;;
33644;SDS011;19986;48.190;16.366;2023-04-08T01:02:14;49.10;;;46.30;;
33644;SDS011;19986;48.190;16.366;2023-04-08T01:07:32;48.88;;;46.38;;
33644;SDS011;19986;48.190;16.366;2023-04-08T01:10:44;47.20;;;44.80;;
33644;SDS011;19986;48.190;16.366;2023-04-08T01:12:55;47.67;;;45.28;;
33644;SDS011;19986;48.190;16.366;2023-04-08T01:15:25;47.10;;;44.78;;
33644;SDS011;19986;48.190;16.366;2023-04-08T01:17:54;47.25;;;44.85;;
33644;SDS011;19986;48.190;16.366;2023-04-08T01:20:22;45.83;;;43.53;;
33644;SDS011;19986;48.190;16.366;2023-04-08T01:23:04;48.75;;;46.35;;
33644;SDS011;19986;48.190;16.366;2023-04-08T01:25:50;48.67;;;46.17;;
33644;SDS011;19986;48.190;16.366;2023-04-08T01:28:18;49.58;;;47.08;;
33644;SDS011;19986;48.190;16.366;2023-04-08T01:30:46;50.30;;;47.80;;
33644;SDS011;19986;48.190;16.366;2023-04-08T01:33:14;48.53;;;46.13;;
33644;SDS011;19986;48.190;16.366;2023-04-08T01:35:42;48.22;;;45.83;;
33644;SDS011;19986;48.190;16.366;2023-04-08T01:38:10;44.70;;;42.50;;
33644;SDS011;19986;48.190;16.366;2023-04-08T01:40:41;44.78;;;42.60;;
33644;SDS011;19986;48.190;16.366;2023-04-08T01:43:08;47.53;;;45.22;;
33644;SDS011;19986;48.190;16.366;2023-04-08T01:45:37;49.38;;;46.97;;
33644;SDS011;19986;48.190;16.366;2023-04-08T01:48:04;46.88;;;44.58;;
33644;SDS011;19986;48.190;16.366;2023-04-08T01:50:31;48.10;;;45.80;;
33644;SDS011;19986;48.190;16.366;2023-04-08T01:52:59;46.10;;;43.80;;
33644;SDS011;19986;48.190;16.366;2023-04-08T01:55:25;46.17;;;43.97;;
33644;SDS011;19986;48.190;16.366;2023-04-08T01:57:53;47.35;;;45.00;;
33644;SDS011;19986;48.190;16.366;2023-04-08T02:00:24;44.95;;;42.75;;
33644;SDS011;19986;48.190;16.366;2023-04-08T02:02:52;47.67;;;45.45;;
33644;SDS011;19986;48.190;16.366;2023-04-08T02:05:19;47.22;;;44.92;;
33644;SDS011;19986;48.190;16.366;2023-04-08T02:07:46;44.88;;;42.78;;
33644;SDS011;19986;48.190;16.366;2023-04-08T02:10:12;48.50;;;46.20;;
33644;SDS011;19986;48.190;16.366;2023-04-08T02:12:38;46.58;;;44.28;;
33644;SDS011;19986;48.190;16.366;2023-04-08T02:15:04;46.10;;;43.90;;
33644;SDS011;19986;48.190;16.366;2023-04-08T02:17:44;48.75;;;46.45;;
33644;SDS011;19986;48.190;16.366;2023-04-08T02:20:16;48.30;;;45.92;;
33644;SDS011;19986;48.190;16.366;2023-04-08T02:25:47;46.47;;;44.28;;
33644;SDS011;19986;48.190;16.366;2023-04-08T02:28:16;49.25;;;46.85;;
33644;SDS011;19986;48.190;16.366;2023-04-08T02:30:50;47.05;;;44.85;;
33644;SDS011;19986;48.190;16.366;2023-04-08T02:33:18;46.20;;;44.00;;
33644;SDS011;19986;48.190;16.366;2023-04-08T02:35:49;45.28;;;43.17;;
33644;SDS011;19986;48.190;16.366;2023-04-08T02:38:19;45.13;;;43.03;;
33644;SDS011;19986;48.190;16.366;2023-04-08T02:40:48;44.15;;;42.15;;
33644;SDS011;19986;48.190;16.366;2023-04-08T02:43:15;47.72;;;45.53;;
33644;SDS011;19986;48.190;16.366;2023-04-08T02:45:42;44.30;;;42.20;;
33644;SDS011;19986;48.190;16.366;2023-04-08T02:48:09;44.20;;;42.10;;
33644;SDS011;19986;48.190;16.366;2023-04-08T02:50:35;46.58;;;44.33;;
33644;SDS011;19986;48.190;16.366;2023-04-08T02:53:02;44.20;;;42.13;;
33644;SDS011;19986;48.190;16.366;2023-04-08T02:55:28;47.78;;;45.47;;
33644;SDS011;19986;48.190;16.366;2023-04-08T02:57:55;44.55;;;42.45;;
33644;SDS011;19986;48.190;16.366;2023-04-08T03:00:20;48.83;;;46.45;;
33644;SDS011;19986;48.190;16.366;2023-04-08T03:02:46;43.95;;;41.92;;
33644;SDS011;19986;48.190;16.366;2023-04-08T03:05:12;47.90;;;45.60;;
33644;SDS011;19986;48.190;16.366;2023-04-08T03:07:40;44.50;;;42.40;;
33644;SDS011;19986;48.190;16.366;2023-04-08T03:10:06;45.63;;;43.42;;
33644;SDS011;19986;48.190;16.366;2023-04-08T03:12:32;45.88;;;43.67;;
33644;SDS011;19986;48.190;16.366;2023-04-08T03:14:58;46.80;;;44.58;;
33644;SDS011;19986;48.190;16.366;2023-04-08T03:17:25;47.83;;;45.58;;
33644;SDS011;19986;48.190;16.366;2023-04-08T03:19:51;46.47;;;44.28;;
33644;SDS011;19986;48.190;16.366;2023-04-08T03:22:18;46.75;;;44.55;;
33644;SDS011;19986;48.190;16.366;2023-04-08T03:24:44;48.83;;;46.45;;
33644;SDS011;19986;48.190;16.366;2023-04-08T03:27:11;47.10;;;44.90;;
33644;SDS011;19986;48.190;16.366;2023-04-08T03:29:42;47.40;;;45.20;;
33644;SDS011;19986;48.190;16.366;2023-04-08T03:32:10;43.30;;;41.28;;
33644;SDS011;19986;48.190;16.366;2023-04-08T03:34:36;46.88;;;44.67;;
33644;SDS011;19986;48.190;16.366;2023-04-08T03:37:02;45.22;;;43.13;;
33644;SDS011;19986;48.190;16.366;2023-04-08T03:39:28;45.50;;;43.30;;
33644;SDS011;19986;48.190;16.366;2023-04-08T03:41:53;44.95;;;42.90;;
33644;SDS011;19986;48.190;16.366;2023-04-08T03:44:19;47.25;;;45.05;;
33644;SDS011;19986;48.190;16.366;2023-04-08T03:46:45;47.03;;;44.83;;
33644;SDS011;19986;48.190;16.366;2023-04-08T03:49:11;44.35;;;42.28;;
33644;SDS011;19986;48.190;16.366;2023-04-08T03:51:37;47.92;;;45.55;;
33644;SDS011;19986;48.190;16.366;2023-04-08T03:54:03;47.63;;;45.33;;
33644;SDS011;19986;48.190;16.366;2023-04-08T03:56:29;44.92;;;42.83;;
33644;SDS011;19986;48.190;16.366;2023-04-08T03:58:55;46.53;;;44.33;;
33644;SDS011;19986;48.190;16.366;2023-04-08T04:01:21;49.65;;;47.35;;
33644;SDS011;19986;48.190;16.366;2023-04-08T04:03:47;45.42;;;43.22;;
33644;SDS011;19986;48.190;16.366;2023-04-08T04:06:12;47.70;;;45.50;;
33644;SDS011;19986;48.190;16.366;2023-04-08T04:08:38;43.65;;;41.55;;
33644;SDS011;19986;48.190;16.366;2023-04-08T04:11:04;44.47;;;42.38;;
33644;SDS011;19986;48.190;16.366;2023-04-08T04:13:30;47.13;;;45.03;;
33644;SDS011;19986;48.190;16.366;2023-04-08T04:15:56;46.45;;;44.35;;
33644;SDS011;19986;48.190;16.366;2023-04-08T04:18:22;46.38;;;44.28;;
33644;SDS011;19986;48.190;16.366;2023-04-08T04:20:48;46.20;;;44.08;;
33644;SDS011;19986;48.190;16.366;2023-04-08T04:23:13;47.03;;;44.90;;
33644;SDS011;19986;48.190;16.366;2023-04-08T04:25:40;48.55;;;46.35;;
33644;SDS011;19986;48.190;16.366;2023-04-08T04:28:06;43.85;;;41.85;;
33644;SDS011;19986;48.190;16.366;2023-04-08T04:30:37;44.10;;;42.03;;
33644;SDS011;19986;48.190;16.366;2023-04-08T04:33:04;45.13;;;43.03;;
33644;SDS011;19986;48.190;16.366;2023-04-08T04:35:30;45.03;;;42.92;;
33644;SDS011;19986;48.190;16.366;2023-04-08T04:37:57;43.58;;;41.58;;
33644;SDS011;19986;48.190;16.366;2023-04-08T04:40:23;45.10;;;43.00;;
33644;SDS011;19986;48.190;16.366;2023-04-08T04:42:49;48.17;;;45.88;;
33644;SDS011;19986;48.190;16.366;2023-04-08T04:45:15;47.25;;;44.97;;
33644;SDS011;19986;48.190;16.366;2023-04-08T04:47:41;48.90;;;46.60;;
33644;SDS011;19986;48.190;16.366;2023-04-08T04:50:07;46.83;;;44.63;;
33644;SDS011;19986;48.190;16.366;2023-04-08T04:52:34;51.30;;;48.90;;
33644;SDS011;19986;48.190;16.366;2023-04-08T04:55:00;48.42;;;46.13;;
33644;SDS011;19986;48.190;16.366;2023-04-08T04:57:26;48.70;;;46.40;;
33644;SDS011;19986;48.190;16.366;2023-04-08T04:59:52;47.05;;;44.85;;
33644;SDS011;19986;48.190;16.366;2023-04-08T05:02:18;46.35;;;44.15;;
33644;SDS011;19986;48.190;16.366;2023-04-08T05:04:44;46.63;;;44.42;;
33644;SDS011;19986;48.190;16.366;2023-04-08T05:07:09;49.65;;;47.25;;
33644;SDS011;19986;48.190;16.366;2023-04-08T05:09:35;48.20;;;45.85;;
33644;SDS011;19986;48.190;16.366;2023-04-08T05:12:01;49.85;;;47.45;;
33644;SDS011;19986;48.190;16.366;2023-04-08T05:14:30;46.90;;;44.67;;
33644;SDS011;19986;48.190;16.366;2023-04-08T05:16:56;49.28;;;46.80;;
33644;SDS011;19986;48.190;16.366;2023-04-08T05:19:22;46.75;;;44.38;;
33644;SDS011;19986;48.190;16.366;2023-04-08T05:21:48;46.83;;;44.53;;
33644;SDS011;19986;48.190;16.366;2023-04-08T05:24:13;47.03;;;44.70;;
33644;SDS011;19986;48.190;16.366;2023-04-08T05:26:39;50.75;;;48.15;;
33644;SDS011;19986;48.190;16.366;2023-04-08T05:29:05;49.42;;;46.92;;
33644;SDS011;19986;48.190;16.366;2023-04-08T05:31:31;48.95;;;46.45;;
33644;SDS011;19986;48.190;16.366;2023-04-08T05:33:58;49.35;;;46.85;;
33644;SDS011;19986;48.190;16.366;2023-04-08T05:36:24;51.25;;;48.65;;
33644;SDS011;19986;48.190;16.366;2023-04-08T05:38:50;48.83;;;46.33;;
33644;SDS011;19986;48.190;16.366;2023-04-08T05:41:16;47.35;;;44.85;;
33644;SDS011;19986;48.190;16.366;2023-04-08T05:43:42;51.47;;;48.88;;
33644;SDS011;19986;48.190;16.366;2023-04-08T05:46:08;49.20;;;46.70;;
33644;SDS011;19986;48.190;16.366;2023-04-08T05:48:34;51.75;;;49.15;;
33644;SDS011;19986;48.190;16.366;2023-04-08T05:51:00;48.90;;;46.40;;
33644;SDS011;19986;48.190;16.366;2023-04-08T05:53:26;47.35;;;44.95;;
33644;SDS011;19986;48.190;16.366;2023-04-08T05:55:52;47.33;;;45.03;;
33644;SDS011;19986;48.190;16.366;2023-04-08T05:58:18;48.08;;;45.67;;
33644;SDS011;19986;48.190;16.366;2023-04-08T06:00:44;46.72;;;44.42;;
33644;SDS011;19986;48.190;16.366;2023-04-08T06:03:10;48.17;;;45.88;;
33644;SDS011;19986;48.190;16.366;2023-04-08T06:05:36;48.58;;;46.28;;
33644;SDS011;19986;48.190;16.366;2023-04-08T06:08:02;46.67;;;44.42;;
33644;SDS011;19986;48.190;16.366;2023-04-08T06:10:27;49.45;;;47.05;;
33644;SDS011;19986;48.190;16.366;2023-04-08T06:12:53;47.60;;;45.22;;
33644;SDS011;19986;48.190;16.366;2023-04-08T06:15:19;46.38;;;44.08;;
33644;SDS011;19986;48.190;16.366;2023-04-08T06:17:45;48.88;;;46.47;;
33644;SDS011;19986;48.190;16.366;2023-04-08T06:20:11;50.00;;;47.60;;
33644;SDS011;19986;48.190;16.366;2023-04-08T06:22:37;45.97;;;43.78;;
33644;SDS011;19986;48.190;16.366;2023-04-08T06:25:03;49.58;;;47.17;;
33644;SDS011;19986;48.190;16.366;2023-04-08T06:27:29;47.90;;;45.60;;
33644;SDS011;19986;48.190;16.366;2023-04-08T06:29:55;46.67;;;44.45;;
33644;SDS011;19986;48.190;16.366;2023-04-08T06:32:21;46.28;;;44.08;;
33644;SDS011;19986;48.190;16.366;2023-04-08T06:34:47;47.10;;;44.90;;
33644;SDS011;19986;48.190;16.366;2023-04-08T06:37:13;48.45;;;46.15;;
33644;SDS011;19986;48.190;16.366;2023-04-08T06:39:39;46.95;;;44.75;;
33644;SDS011;19986;48.190;16.366;2023-04-08T06:42:05;49.15;;;46.85;;
33644;SDS011;19986;48.190;16.366;2023-04-08T06:44:31;44.88;;;42.80;;
33644;SDS011;19986;48.190;16.366;2023-04-08T06:46:57;46.95;;;44.75;;
33644;SDS011;19986;48.190;16.366;2023-04-08T06:49:23;46.75;;;44.55;;
33644;SDS011;19986;48.190;16.366;2023-04-08T06:51:49;43.95;;;41.90;;
33644;SDS011;19986;48.190;16.366;2023-04-08T06:54:15;46.97;;;44.80;;
33644;SDS011;19986;48.190;16.366;2023-04-08T06:56:40;46.65;;;44.45;;
33644;SDS011;19986;48.190;16.366;2023-04-08T06:59:07;46.60;;;44.40;;
33644;SDS011;19986;48.190;16.366;2023-04-08T07:01:33;44.75;;;42.65;;
33644;SDS011;19986;48.190;16.366;2023-04-08T07:03:58;45.67;;;43.58;;
33644;SDS011;19986;48.190;16.366;2023-04-08T07:06:26;46.17;;;44.05;;
33644;SDS011;19986;48.190;16.366;2023-04-08T07:08:52;48.58;;;46.38;;
33644;SDS011;19986;48.190;16.366;2023-04-08T07:11:18;43.67;;;41.58;;
33644;SDS011;19986;48.190;16.366;2023-04-08T07:13:43;46.53;;;44.33;;
33644;SDS011;19986;48.190;16.366;2023-04-08T07:16:10;48.67;;;46.38;;
33644;SDS011;19986;48.190;16.366;2023-04-08T07:18:36;46.17;;;43.97;;
33644;SDS011;19986;48.190;16.366;2023-04-08T07:21:02;46.45;;;44.20;;
33644;SDS011;19986;48.190;16.366;2023-04-08T07:23:28;47.97;;;45.67;;
33644;SDS011;19986;48.190;16.366;2023-04-08T07:25:54;45.55;;;43.35;;
33644;SDS011;19986;48.190;16.366;2023-04-08T07:28:19;45.65;;;43.42;;
33644;SDS011;19986;48.190;16.366;2023-04-08T07:30:45;47.22;;;45.03;;
33644;SDS011;19986;48.190;16.366;2023-04-08T07:33:11;45.40;;;43.13;;
33644;SDS011;19986;48.190;16.366;2023-04-08T07:35:37;48.95;;;46.55;;
33644;SDS011;19986;48.190;16.366;2023-04-08T07:38:03;47.42;;;45.13;;
33644;SDS011;19986;48.190;16.366;2023-04-08T07:40:33;47.75;;;45.38;;
33644;SDS011;19986;48.190;16.366;2023-04-08T07:42:59;48.78;;;46.38;;
33644;SDS011;19986;48.190;16.366;2023-04-08T07:45:24;50.92;;;48.33;;
33644;SDS011;19986;48.190;16.366;2023-04-08T07:47:50;51.05;;;48.45;;
33644;SDS011;19986;48.190;16.366;2023-04-08T07:50:16;50.15;;;47.55;;
33644;SDS011;19986;48.190;16.366;2023-04-08T07:52:42;47.63;;;45.22;;
33644;SDS011;19986;48.190;16.366;2023-04-08T07:55:08;49.83;;;47.25;;
33644;SDS011;19986;48.190;16.366;2023-04-08T07:57:34;49.80;;;47.28;;
33644;SDS011;19986;48.190;16.366;2023-04-08T08:00:00;49.42;;;46.83;;
33644;SDS011;19986;48.190;16.366;2023-04-08T08:02:26;50.67;;;47.97;;
33644;SDS011;19986;48.190;16.366;2023-04-08T08:04:51;48.33;;;45.75;;
33644;SDS011;19986;48.190;16.366;2023-04-08T08:07:17;46.90;;;44.38;;
33644;SDS011;19986;48.190;16.366;2023-04-08T08:09:43;51.03;;;48.33;;
33644;SDS011;19986;48.190;16.366;2023-04-08T08:12:09;50.33;;;47.63;;
33644;SDS011;19986;48.190;16.366;2023-04-08T08:14:35;52.38;;;49.53;;
33644;SDS011;19986;48.190;16.366;2023-04-08T08:17:02;50.08;;;47.30;;
33644;SDS011;19986;48.190;16.366;2023-04-08T08:19:28;50.85;;;47.95;;
33644;SDS011;19986;48.190;16.366;2023-04-08T08:21:54;53.38;;;50.08;;
33644;SDS011;19986;48.190;16.366;2023-04-08T08:24:21;52.63;;;49.65;;
33644;SDS011;19986;48.190;16.366;2023-04-08T08:26:47;53.10;;;50.20;;
33644;SDS011;19986;48.190;16.366;2023-04-08T08:29:13;54.45;;;51.38;;
33644;SDS011;19986;48.190;16.366;2023-04-08T08:31:39;53.40;;;50.30;;
33644;SDS011;19986;48.190;16.366;2023-04-08T08:34:05;50.50;;;47.67;;
33644;SDS011;19986;48.190;16.366;2023-04-08T08:36:31;56.22;;;52.95;;
33644;SDS011;19986;48.190;16.366;2023-04-08T08:38:56;52.90;;;49.88;;
33644;SDS011;19986;48.190;16.366;2023-04-08T08:41:22;52.28;;;49.28;;
33644;SDS011;19986;48.190;16.366;2023-04-08T08:43:48;53.45;;;50.35;;
33644;SDS011;19986;48.190;16.366;2023-04-08T08:46:15;51.97;;;48.97;;
33644;SDS011;19986;48.190;16.366;2023-04-08T08:48:44;50.05;;;47.25;;
33644;SDS011;19986;48.190;16.366;2023-04-08T08:51:11;51.47;;;48.53;;
33644;SDS011;19986;48.190;16.366;2023-04-08T08:53:37;52.97;;;49.78;;
33644;SDS011;19986;48.190;16.366;2023-04-08T08:56:05;53.63;;;50.63;;
33644;SDS011;19986;48.190;16.366;2023-04-08T08:58:33;50.30;;;47.35;;
33644;SDS011;19986;48.190;16.366;2023-04-08T09:00:59;55.38;;;52.28;;
33644;SDS011;19986;48.190;16.366;2023-04-08T09:03:26;51.33;;;48.40;;
33644;SDS011;19986;48.190;16.366;2023-04-08T09:06:01;53.33;;;50.22;;
33644;SDS011;19986;48.190;16.366;2023-04-08T09:08:34;51.13;;;48.22;;
33644;SDS011;19986;48.190;16.366;2023-04-08T09:13:36;54.33;;;51.22;;
33644;SDS011;19986;48.190;16.366;2023-04-08T09:16:03;54.00;;;50.90;;
33644;SDS011;19986;48.190;16.366;2023-04-08T09:18:31;53.08;;;49.97;;
33644;SDS011;19986;48.190;16.366;2023-04-08T09:20:58;53.90;;;50.67;;
33644;SDS011;19986;48.190;16.366;2023-04-08T09:23:45;53.92;;;50.88;;
33644;SDS011;19986;48.190;16.366;2023-04-08T09:26:15;50.10;;;47.17;;
33644;SDS011;19986;48.190;16.366;2023-04-08T09:28:43;53.35;;;50.17;;
33644;SDS011;19986;48.190;16.366;2023-04-08T09:31:35;52.22;;;49.13;;
33644;SDS011;19986;48.190;16.366;2023-04-08T09:34:09;52.80;;;49.70;;
33644;SDS011;19986;48.190;16.366;2023-04-08T09:36:44;55.50;;;52.20;;
33644;SDS011;19986;48.190;16.366;2023-04-08T09:39:12;52.78;;;49.78;;
33644;SDS011;19986;48.190;16.366;2023-04-08T09:41:38;50.72;;;47.83;;
33644;SDS011;19986;48.190;16.366;2023-04-08T09:44:06;51.80;;;48.75;;
33644;SDS011;19986;48.190;16.366;2023-04-08T09:49:36;54.40;;;51.15;;
33644;SDS011;19986;48.190;16.366;2023-04-08T09:52:10;53.45;;;50.15;;
33644;SDS011;19986;48.190;16.366;2023-04-08T09:57:15;55.20;;;51.80;;
33644;SDS011;19986;48.190;16.366;2023-04-08T09:59:48;53.65;;;50.35;;
33644;SDS011;19986;48.190;16.366;2023-04-08T10:02:30;52.45;;;49.22;;
33644;SDS011;19986;48.190;16.366;2023-04-08T10:05:04;50.53;;;47.42;;
33644;SDS011;19986;48.190;16.366;2023-04-08T10:07:33;51.00;;;47.80;;
33644;SDS011;19986;48.190;16.366;2023-04-08T10:10:00;53.03;;;49.90;;
33644;SDS011;19986;48.190;16.366;2023-04-08T10:12:26;49.97;;;46.97;;
33644;SDS011;19986;48.190;16.366;2023-04-08T10:15:53;51.17;;;48.03;;
33644;SDS011;19986;48.190;16.366;2023-04-08T10:17:55;53.35;;;49.95;;
33644;SDS011;19986;48.190;16.366;2023-04-08T10:20:45;52.83;;;49.63;;
33644;SDS011;19986;48.190;16.366;2023-04-08T10:23:12;54.05;;;50.65;;
33644;SDS011;19986;48.190;16.366;2023-04-08T10:25:40;52.78;;;49.38;;
33644;SDS011;19986;48.190;16.366;2023-04-08T10:33:17;52.85;;;49.55;;
33644;SDS011;19986;48.190;16.366;2023-04-08T10:38:36;56.13;;;52.58;;
33644;SDS011;19986;48.190;16.366;2023-04-08T10:41:02;56.22;;;52.63;;
33644;SDS011;19986;48.190;16.366;2023-04-08T10:43:32;56.28;;;52.55;;
33644;SDS011;19986;48.190;16.366;2023-04-08T10:45:58;56.72;;;53.03;;
33644;SDS011;19986;48.190;16.366;2023-04-08T10:48:25;57.00;;;53.30;;
33644;SDS011;19986;48.190;16.366;2023-04-08T10:56:03;55.88;;;51.97;;
33644;SDS011;19986;48.190;16.366;2023-04-08T10:58:31;57.70;;;53.80;;
33644;SDS011;19986;48.190;16.366;2023-04-08T11:01:07;58.33;;;54.03;;
33644;SDS011;19986;48.190;16.366;2023-04-08T11:03:33;60.78;;;56.53;;
33644;SDS011;19986;48.190;16.366;2023-04-08T11:06:01;60.08;;;55.78;;
33644;SDS011;19986;48.190;16.366;2023-04-08T11:08:30;61.75;;;57.45;;
33644;SDS011;19986;48.190;16.366;2023-04-08T11:10:57;59.85;;;55.78;;
33644;SDS011;19986;48.190;16.366;2023-04-08T11:13:27;58.55;;;54.50;;
33644;SDS011;19986;48.190;16.366;2023-04-08T11:15:54;61.20;;;56.95;;
33644;SDS011;19986;48.190;16.366;2023-04-08T11:18:21;57.55;;;53.58;;
33644;SDS011;19986;48.190;16.366;2023-04-08T11:20:49;59.88;;;55.65;;
33644;SDS011;19986;48.190;16.366;2023-04-08T11:23:16;61.85;;;57.65;;
33644;SDS011;19986;48.190;16.366;2023-04-08T11:25:43;58.05;;;54.15;;
33644;SDS011;19986;48.190;16.366;2023-04-08T11:28:10;60.30;;;56.30;;
33644;SDS011;19986;48.190;16.366;2023-04-08T11:30:40;57.92;;;54.00;;
33644;SDS011;19986;48.190;16.366;2023-04-08T11:33:06;59.60;;;55.60;;
33644;SDS011;19986;48.190;16.366;2023-04-08T11:35:32;57.75;;;53.72;;
33644;SDS011;19986;48.190;16.366;2023-04-08T11:37:59;58.63;;;54.60;;
33644;SDS011;19986;48.190;16.366;2023-04-08T11:40:25;59.65;;;55.70;;
33644;SDS011;19986;48.190;16.366;2023-04-08T11:42:51;57.28;;;53.55;;
33644;SDS011;19986;48.190;16.366;2023-04-08T11:45:18;59.63;;;55.42;;
33644;SDS011;19986;48.190;16.366;2023-04-08T11:47:45;58.85;;;54.97;;
33644;SDS011;19986;48.190;16.366;2023-04-08T11:50:23;58.17;;;54.45;;
33644;SDS011;19986;48.190;16.366;2023-04-08T11:52:50;56.53;;;52.85;;
33644;SDS011;19986;48.190;16.366;2023-04-08T11:55:24;56.28;;;52.85;;
33644;SDS011;19986;48.190;16.366;2023-04-08T11:57:55;53.38;;;49.95;;
33644;SDS011;19986;48.190;16.366;2023-04-08T12:00:22;53.45;;;50.13;;
33644;SDS011;19986;48.190;16.366;2023-04-08T12:02:48;55.35;;;51.95;;
33644;SDS011;19986;48.190;16.366;2023-04-08T12:05:15;52.92;;;49.53;;
33644;SDS011;19986;48.190;16.366;2023-04-08T12:07:41;52.80;;;49.67;;
33644;SDS011;19986;48.190;16.366;2023-04-08T12:10:11;57.08;;;53.47;;
33644;SDS011;19986;48.190;16.366;2023-04-08T12:12:38;54.47;;;50.97;;
33644;SDS011;19986;48.190;16.366;2023-04-08T12:15:05;55.33;;;51.83;;
33644;SDS011;19986;48.190;16.366;2023-04-08T12:17:32;53.65;;;50.33;;
33644;SDS011;19986;48.190;16.366;2023-04-08T12:19:58;55.30;;;51.70;;
33644;SDS011;19986;48.190;16.366;2023-04-08T12:22:25;54.38;;;50.97;;
33644;SDS011;19986;48.190;16.366;2023-04-08T12:24:51;53.35;;;49.95;;
33644;SDS011;19986;48.190;16.366;2023-04-08T12:27:17;54.63;;;51.22;;
33644;SDS011;19986;48.190;16.366;2023-04-08T12:29:43;54.92;;;51.53;;
33644;SDS011;19986;48.190;16.366;2023-04-08T12:32:10;57.35;;;53.75;;
33644;SDS011;19986;48.190;16.366;2023-04-08T12:34:36;56.30;;;52.53;;
33644;SDS011;19986;48.190;16.366;2023-04-08T12:37:05;53.97;;;50.58;;
33644;SDS011;19986;48.190;16.366;2023-04-08T12:39:31;56.53;;;53.03;;
33644;SDS011;19986;48.190;16.366;2023-04-08T12:41:57;54.97;;;51.50;;
33644;SDS011;19986;48.190;16.366;2023-04-08T12:44:23;53.45;;;50.15;;
33644;SDS011;19986;48.190;16.366;2023-04-08T12:46:49;56.97;;;53.38;;
33644;SDS011;19986;48.190;16.366;2023-04-08T12:49:15;53.95;;;50.33;;
33644;SDS011;19986;48.190;16.366;2023-04-08T12:51:41;55.47;;;51.97;;
33644;SDS011;19986;48.190;16.366;2023-04-08T12:54:07;56.22;;;52.67;;
33644;SDS011;19986;48.190;16.366;2023-04-08T12:56:33;56.50;;;52.90;;
33644;SDS011;19986;48.190;16.366;2023-04-08T12:58:59;54.15;;;50.92;;
33644;SDS011;19986;48.190;16.366;2023-04-08T13:01:25;52.50;;;49.30;;
33644;SDS011;19986;48.190;16.366;2023-04-08T13:03:51;54.78;;;51.28;;
33644;SDS011;19986;48.190;16.366;2023-04-08T13:06:18;57.03;;;53.53;;
33644;SDS011;19986;48.190;16.366;2023-04-08T13:08:44;54.92;;;51.58;;
33644;SDS011;19986;48.190;16.366;2023-04-08T13:11:11;52.58;;;49.47;;
33644;SDS011;19986;48.190;16.366;2023-04-08T13:13:36;47.20;;;44.50;;
33644;SDS011;19986;48.190;16.366;2023-04-08T13:16:02;53.28;;;50.38;;
33644;SDS011;19986;48.190;16.366;2023-04-08T13:18:29;49.45;;;46.65;;
33644;SDS011;19986;48.190;16.366;2023-04-08T13:20:55;48.65;;;45.95;;
33644;SDS011;19986;48.190;16.366;2023-04-08T13:23:22;49.85;;;46.95;;
33644;SDS011;19986;48.190;16.366;2023-04-08T13:25:48;51.65;;;48.55;;
33644;SDS011;19986;48.190;16.366;2023-04-08T13:28:14;50.72;;;47.85;;
33644;SDS011;19986;48.190;16.366;2023-04-08T13:30:40;51.80;;;48.80;;
33644;SDS011;19986;48.190;16.366;2023-04-08T13:33:06;53.78;;;50.78;;
33644;SDS011;19986;48.190;16.366;2023-04-08T13:35:32;58.63;;;54.78;;
33644;SDS011;19986;48.190;16.366;2023-04-08T13:37:58;50.00;;;47.20;;
33644;SDS011;19986;48.190;16.366;2023-04-08T13:40:25;51.50;;;48.60;;
33644;SDS011;19986;48.190;16.366;2023-04-08T13:42:52;51.60;;;48.60;;
33644;SDS011;19986;48.190;16.366;2023-04-08T13:45:18;51.47;;;48.58;;
33644;SDS011;19986;48.190;16.366;2023-04-08T13:47:44;49.70;;;46.80;;
33644;SDS011;19986;48.190;16.366;2023-04-08T13:50:10;52.08;;;49.17;;
33644;SDS011;19986;48.190;16.366;2023-04-08T13:52:36;50.92;;;47.92;;
33644;SDS011;19986;48.190;16.366;2023-04-08T13:55:02;49.70;;;46.97;;
33644;SDS011;19986;48.190;16.366;2023-04-08T13:57:28;47.65;;;44.92;;
33644;SDS011;19986;48.190;16.366;2023-04-08T13:59:55;51.85;;;48.95;;
33644;SDS011;19986;48.190;16.366;2023-04-08T14:02:21;49.70;;;46.90;;
33644;SDS011;19986;48.190;16.366;2023-04-08T14:04:47;48.85;;;46.10;;
33644;SDS011;19986;48.190;16.366;2023-04-08T14:07:13;50.28;;;47.58;;
33644;SDS011;19986;48.190;16.366;2023-04-08T14:09:39;50.08;;;47.22;;
33644;SDS011;19986;48.190;16.366;2023-04-08T14:12:05;52.30;;;49.40;;
33644;SDS011;19986;48.190;16.366;2023-04-08T14:14:32;51.47;;;48.22;;
33644;SDS011;19986;48.190;16.366;2023-04-08T14:16:58;46.30;;;43.88;;
33644;SDS011;19986;48.190;16.366;2023-04-08T14:19:24;49.53;;;46.92;;
33644;SDS011;19986;48.190;16.366;2023-04-08T14:21:50;46.08;;;43.67;;
33644;SDS011;19986;48.190;16.366;2023-04-08T14:24:17;48.83;;;45.88;;
33644;SDS011;19986;48.190;16.366;2023-04-08T14:26:43;47.10;;;44.70;;
33644;SDS011;19986;48.190;16.366;2023-04-08T14:29:09;47.45;;;44.85;;
33644;SDS011;19986;48.190;16.366;2023-04-08T14:31:35;47.35;;;44.85;;
33644;SDS011;19986;48.190;16.366;2023-04-08T14:34:01;45.72;;;43.42;;
33644;SDS011;19986;48.190;16.366;2023-04-08T14:36:27;49.63;;;47.03;;